EJA786 KPBI-KSAT
Flight info
| Callsign | EJA786 |
|---|---|
| Flight time | 2h 39m |
| Altitude | 40000 |
| Route | OLAKE3 JAYMC Y280 REMIS BUNNZ Y290 LEV J86 PEKON Q56 MOLLR QERVO3 |
| Aircraft | CL60/M-SBDE1E2E3FGHIJ1J4J5J7M3RWXYZ/LB1V1D1 |
Departure
| Time | 2026-04-26 16:14 |
|---|---|
| Airport | Palm Beach International Airport (KPBI) |
Arrival
| Time | 2026-04-26 18:53 |
|---|---|
| Airport | San Antonio International Airport (KSAT) |
| Time | Latitude | Longitude | Altitude | Speed | Heading |
|---|---|---|---|---|---|
| 2026-04-26 15:47 | 26.67918 | -80.08234 | 17 ft | 0 kts | 198° |
| 2026-04-26 16:10 | 26.67915 | -80.08236 | 17 ft | 2 kts | 216° |
| 2026-04-26 16:11 | 26.67940 | -80.08266 | 17 ft | 10 kts | 341° |
| 2026-04-26 16:11 | 26.68002 | -80.08278 | 17 ft | 9 kts | 29° |
| 2026-04-26 16:11 | 26.68031 | -80.08196 | 17 ft | 13 kts | 76° |
| 2026-04-26 16:11 | 26.68083 | -80.08145 | 17 ft | 10 kts | 40° |
| 2026-04-26 16:12 | 26.68090 | -80.08067 | 17 ft | 9 kts | 93° |
| 2026-04-26 16:12 | 26.68087 | -80.07978 | 17 ft | 13 kts | 93° |
| 2026-04-26 16:12 | 26.68105 | -80.07798 | 17 ft | 10 kts | 24° |
| 2026-04-26 16:13 | 26.68173 | -80.07791 | 17 ft | 6 kts | 2° |
| 2026-04-26 16:13 | 26.68190 | -80.07835 | 17 ft | 6 kts | 272° |
| 2026-04-26 16:13 | 26.68195 | -80.07972 | 17 ft | 53 kts | 274° |
| 2026-04-26 16:13 | 26.68231 | -80.08783 | 20 ft | 149 kts | 271° |
| 2026-04-26 16:14 | 26.68292 | -80.10004 | 860 ft | 161 kts | 271° |
| 2026-04-26 16:14 | 26.68342 | -80.11221 | 1914 ft | 163 kts | 270° |
| 2026-04-26 16:14 | 26.68428 | -80.13747 | 3842 ft | 180 kts | 270° |
| 2026-04-26 16:15 | 26.68454 | -80.15226 | 4637 ft | 204 kts | 269° |
| 2026-04-26 16:15 | 26.68420 | -80.16887 | 5482 ft | 227 kts | 269° |
| 2026-04-26 16:15 | 26.68471 | -80.18731 | 6305 ft | 253 kts | 273° |
| 2026-04-26 16:16 | 26.69800 | -80.22470 | 8665 ft | 272 kts | 301° |
| 2026-04-26 16:16 | 26.70809 | -80.24260 | 9850 ft | 279 kts | 302° |
| 2026-04-26 16:16 | 26.71869 | -80.26051 | 11094 ft | 282 kts | 308° |
| 2026-04-26 16:16 | 26.73414 | -80.27524 | 11558 ft | 314 kts | 330° |
| 2026-04-26 16:17 | 26.75522 | -80.28605 | 12141 ft | 338 kts | 335° |
| 2026-04-26 16:17 | 26.77707 | -80.29688 | 13022 ft | 349 kts | 335° |
| 2026-04-26 16:17 | 26.79937 | -80.30801 | 13961 ft | 355 kts | 335° |
| 2026-04-26 16:17 | 26.82199 | -80.31933 | 14888 ft | 361 kts | 334° |
| 2026-04-26 16:18 | 26.84492 | -80.33082 | 15881 ft | 363 kts | 334° |
| 2026-04-26 16:18 | 26.88987 | -80.35696 | 17601 ft | 370 kts | 320° |
| 2026-04-26 16:19 | 26.91773 | -80.40472 | 19154 ft | 380 kts | 286° |
| 2026-04-26 16:19 | 26.92191 | -80.43413 | 19879 ft | 387 kts | 278° |
| 2026-04-26 16:19 | 26.92723 | -80.48427 | 21134 ft | 392 kts | 279° |
| 2026-04-26 16:20 | 26.93161 | -80.52498 | 22065 ft | 397 kts | 279° |
| 2026-04-26 16:20 | 26.93828 | -80.58721 | 23310 ft | 406 kts | 279° |
| 2026-04-26 16:20 | 26.94164 | -80.61871 | 23979 ft | 410 kts | 279° |
| 2026-04-26 16:21 | 26.94504 | -80.65054 | 24575 ft | 414 kts | 279° |
| 2026-04-26 16:21 | 26.94847 | -80.68275 | 25218 ft | 416 kts | 279° |
| 2026-04-26 16:21 | 26.95189 | -80.71494 | 25754 ft | 421 kts | 279° |
| 2026-04-26 16:21 | 26.95540 | -80.74805 | 26297 ft | 425 kts | 279° |
| 2026-04-26 16:22 | 26.95842 | -80.78095 | 26852 ft | 428 kts | 276° |
| 2026-04-26 16:22 | 26.95989 | -80.81431 | 27377 ft | 432 kts | 275° |
| 2026-04-26 16:22 | 26.96120 | -80.84789 | 27899 ft | 433 kts | 275° |
| 2026-04-26 16:22 | 26.96254 | -80.88193 | 28408 ft | 435 kts | 275° |
| 2026-04-26 16:23 | 26.96386 | -80.91564 | 28842 ft | 438 kts | 275° |
| 2026-04-26 16:23 | 26.96520 | -80.95007 | 29234 ft | 441 kts | 275° |
| 2026-04-26 16:23 | 26.96654 | -80.98453 | 29620 ft | 443 kts | 275° |
| 2026-04-26 16:23 | 26.96785 | -81.01891 | 30287 ft | 424 kts | 275° |
| 2026-04-26 16:24 | 26.96908 | -81.05181 | 30539 ft | 425 kts | 275° |
| 2026-04-26 16:24 | 26.97038 | -81.08543 | 30692 ft | 433 kts | 275° |
| 2026-04-26 16:24 | 26.97166 | -81.11911 | 30986 ft | 437 kts | 275° |
| 2026-04-26 16:24 | 26.97295 | -81.15339 | 31423 ft | 437 kts | 275° |
| 2026-04-26 16:25 | 26.97422 | -81.18755 | 31906 ft | 436 kts | 275° |
| 2026-04-26 16:25 | 26.97548 | -81.22148 | 32419 ft | 433 kts | 275° |
| 2026-04-26 16:25 | 26.97671 | -81.25488 | 32880 ft | 431 kts | 275° |
| 2026-04-26 16:25 | 26.97794 | -81.28853 | 33338 ft | 430 kts | 275° |
| 2026-04-26 16:26 | 26.97992 | -81.32162 | 33764 ft | 427 kts | 279° |
| 2026-04-26 16:26 | 26.98317 | -81.34354 | 34077 ft | 424 kts | 284° |
| 2026-04-26 16:26 | 26.99464 | -81.38553 | 34648 ft | 420 kts | 294° |
| 2026-04-26 16:26 | 27.00734 | -81.41499 | 35047 ft | 418 kts | 300° |
| 2026-04-26 16:27 | 27.02268 | -81.44289 | 35409 ft | 418 kts | 303° |
| 2026-04-26 16:27 | 27.03825 | -81.47034 | 35763 ft | 417 kts | 303° |
| 2026-04-26 16:27 | 27.05372 | -81.49769 | 36129 ft | 416 kts | 303° |
| 2026-04-26 16:27 | 27.06923 | -81.52513 | 36472 ft | 416 kts | 303° |
| 2026-04-26 16:28 | 27.08468 | -81.55247 | 36813 ft | 414 kts | 303° |
| 2026-04-26 16:28 | 27.10011 | -81.57981 | 37124 ft | 414 kts | 303° |
| 2026-04-26 16:28 | 27.11568 | -81.60741 | 37410 ft | 414 kts | 303° |
| 2026-04-26 16:28 | 27.13103 | -81.63464 | 37714 ft | 413 kts | 303° |
| 2026-04-26 16:29 | 27.14649 | -81.66209 | 37958 ft | 413 kts | 302° |
| 2026-04-26 16:29 | 27.16195 | -81.68955 | 38259 ft | 413 kts | 302° |
| 2026-04-26 16:29 | 27.17710 | -81.71647 | 38511 ft | 413 kts | 302° |
| 2026-04-26 16:29 | 27.19255 | -81.74395 | 38747 ft | 413 kts | 302° |
| 2026-04-26 16:30 | 27.20771 | -81.77094 | 39005 ft | 412 kts | 302° |
| 2026-04-26 16:30 | 27.22302 | -81.79820 | 39249 ft | 411 kts | 302° |
| 2026-04-26 16:30 | 27.23808 | -81.82504 | 39466 ft | 410 kts | 302° |
| 2026-04-26 16:30 | 27.25355 | -81.85263 | 39699 ft | 409 kts | 302° |
| 2026-04-26 16:31 | 27.26893 | -81.88023 | 39888 ft | 410 kts | 301° |
| 2026-04-26 16:31 | 27.28182 | -81.90849 | 39946 ft | 412 kts | 294° |
| 2026-04-26 16:31 | 27.29726 | -81.97155 | 39946 ft | 419 kts | 283° |
| 2026-04-26 16:32 | 27.30737 | -82.02551 | 39933 ft | 424 kts | 283° |
| 2026-04-26 16:32 | 27.32164 | -82.10171 | 39941 ft | 428 kts | 284° |
| 2026-04-26 16:33 | 27.33394 | -82.16760 | 39945 ft | 432 kts | 284° |
| 2026-04-26 16:33 | 27.34631 | -82.23408 | 39941 ft | 435 kts | 284° |
| 2026-04-26 16:34 | 27.35875 | -82.30107 | 39954 ft | 436 kts | 284° |
| 2026-04-26 16:34 | 27.37114 | -82.36809 | 39949 ft | 436 kts | 284° |
| 2026-04-26 16:35 | 27.38346 | -82.43483 | 39961 ft | 434 kts | 284° |
| 2026-04-26 16:35 | 27.39579 | -82.50184 | 39983 ft | 434 kts | 284° |
| 2026-04-26 16:36 | 27.40799 | -82.56830 | 39979 ft | 434 kts | 284° |
| 2026-04-26 16:36 | 27.42042 | -82.63473 | 39968 ft | 435 kts | 285° |
| 2026-04-26 16:37 | 27.43293 | -82.70169 | 39969 ft | 435 kts | 284° |
| 2026-04-26 16:37 | 27.44531 | -82.76815 | 39969 ft | 436 kts | 285° |
| 2026-04-26 16:38 | 27.45769 | -82.83481 | 39966 ft | 435 kts | 285° |
| 2026-04-26 16:38 | 27.47002 | -82.90138 | 39969 ft | 435 kts | 285° |
| 2026-04-26 16:39 | 27.48231 | -82.96796 | 39964 ft | 435 kts | 285° |
| 2026-04-26 16:39 | 27.49462 | -83.03484 | 39971 ft | 435 kts | 285° |
| 2026-04-26 16:40 | 27.50682 | -83.10126 | 39971 ft | 435 kts | 285° |
| 2026-04-26 16:40 | 27.51905 | -83.16808 | 39965 ft | 434 kts | 285° |
| 2026-04-26 16:41 | 27.53116 | -83.23441 | 39966 ft | 433 kts | 285° |
| 2026-04-26 16:41 | 27.54323 | -83.30068 | 39968 ft | 432 kts | 285° |
| 2026-04-26 16:42 | 27.55528 | -83.36709 | 39966 ft | 431 kts | 285° |
| 2026-04-26 16:42 | 27.56722 | -83.43308 | 39970 ft | 430 kts | 285° |
| 2026-04-26 16:43 | 27.57913 | -83.49907 | 39967 ft | 429 kts | 285° |
| 2026-04-26 16:43 | 27.59094 | -83.56471 | 39964 ft | 429 kts | 285° |
| 2026-04-26 16:44 | 27.60278 | -83.63062 | 39966 ft | 428 kts | 285° |
| 2026-04-26 16:44 | 27.61448 | -83.69601 | 39969 ft | 427 kts | 285° |
| 2026-04-26 16:45 | 27.62625 | -83.76196 | 39971 ft | 427 kts | 284° |
| 2026-04-26 16:45 | 27.63785 | -83.82717 | 39972 ft | 426 kts | 285° |
| 2026-04-26 16:46 | 27.64947 | -83.89267 | 39967 ft | 425 kts | 284° |
| 2026-04-26 16:46 | 27.66099 | -83.95776 | 39966 ft | 424 kts | 285° |
| 2026-04-26 16:47 | 27.67248 | -84.02293 | 39967 ft | 423 kts | 284° |
| 2026-04-26 16:47 | 27.68387 | -84.08767 | 39968 ft | 422 kts | 284° |
| 2026-04-26 16:48 | 27.69522 | -84.15238 | 39968 ft | 421 kts | 284° |
| 2026-04-26 16:48 | 27.70655 | -84.21718 | 39970 ft | 420 kts | 285° |
| 2026-04-26 16:49 | 27.71781 | -84.28175 | 39972 ft | 419 kts | 285° |
| 2026-04-26 16:49 | 27.72901 | -84.34618 | 39973 ft | 418 kts | 285° |
| 2026-04-26 16:50 | 27.74015 | -84.41045 | 39971 ft | 418 kts | 285° |
| 2026-04-26 16:50 | 27.75127 | -84.47473 | 39980 ft | 418 kts | 285° |
| 2026-04-26 16:51 | 27.76237 | -84.53912 | 39976 ft | 418 kts | 285° |
| 2026-04-26 16:51 | 27.77341 | -84.60334 | 39979 ft | 417 kts | 285° |
| 2026-04-26 16:52 | 27.78256 | -84.65678 | 39982 ft | 416 kts | 285° |
| 2026-04-26 16:52 | 27.79530 | -84.73130 | 39982 ft | 416 kts | 285° |
| 2026-04-26 16:53 | 27.80620 | -84.79527 | 39984 ft | 415 kts | 285° |
| 2026-04-26 16:53 | 27.81705 | -84.85908 | 39987 ft | 415 kts | 285° |
| 2026-04-26 16:54 | 27.82790 | -84.92313 | 39989 ft | 413 kts | 285° |
| 2026-04-26 16:54 | 27.83864 | -84.98663 | 39988 ft | 411 kts | 285° |
| 2026-04-26 16:55 | 27.84926 | -85.04964 | 39988 ft | 410 kts | 285° |
| 2026-04-26 16:55 | 27.85994 | -85.11314 | 39990 ft | 410 kts | 285° |
| 2026-04-26 16:56 | 27.87584 | -85.20809 | 39987 ft | 409 kts | 285° |
| 2026-04-26 16:57 | 27.88566 | -85.27142 | 39988 ft | 411 kts | 281° |
| 2026-04-26 16:57 | 27.89412 | -85.36778 | 39989 ft | 412 kts | 280° |
| 2026-04-26 16:58 | 27.89880 | -85.42161 | 39989 ft | 411 kts | 281° |
| 2026-04-26 16:59 | 27.90805 | -85.52821 | 39989 ft | 410 kts | 281° |
| 2026-04-26 17:00 | 27.91905 | -85.65605 | 39990 ft | 408 kts | 280° |
| 2026-04-26 17:00 | 27.92720 | -85.75141 | 39992 ft | 407 kts | 280° |
| 2026-04-26 17:01 | 27.93260 | -85.81494 | 39988 ft | 407 kts | 280° |
| 2026-04-26 17:01 | 27.93797 | -85.87851 | 39989 ft | 407 kts | 280° |
| 2026-04-26 17:02 | 27.94334 | -85.94235 | 39987 ft | 406 kts | 280° |
| 2026-04-26 17:02 | 27.94862 | -86.00550 | 39989 ft | 405 kts | 280° |
| 2026-04-26 17:03 | 27.95393 | -86.06934 | 39986 ft | 405 kts | 280° |
| 2026-04-26 17:03 | 27.95915 | -86.13240 | 39986 ft | 405 kts | 280° |
| 2026-04-26 17:04 | 27.96437 | -86.19584 | 39982 ft | 405 kts | 280° |
| 2026-04-26 17:04 | 27.96954 | -86.25906 | 39983 ft | 405 kts | 280° |
| 2026-04-26 17:05 | 27.97467 | -86.32217 | 39980 ft | 405 kts | 280° |
| 2026-04-26 17:05 | 27.97980 | -86.38556 | 39977 ft | 404 kts | 280° |
| 2026-04-26 17:06 | 27.98488 | -86.44879 | 39979 ft | 404 kts | 280° |
| 2026-04-26 17:06 | 27.98992 | -86.51182 | 39977 ft | 404 kts | 280° |
| 2026-04-26 17:07 | 27.99494 | -86.57494 | 39976 ft | 404 kts | 280° |
| 2026-04-26 17:07 | 27.99994 | -86.63823 | 39976 ft | 403 kts | 280° |
| 2026-04-26 17:08 | 28.00489 | -86.70126 | 39972 ft | 404 kts | 279° |
| 2026-04-26 17:08 | 28.01118 | -86.76423 | 39975 ft | 401 kts | 286° |
| 2026-04-26 17:09 | 28.02496 | -86.81401 | 39969 ft | 398 kts | 291° |
| 2026-04-26 17:09 | 28.04560 | -86.88326 | 39972 ft | 398 kts | 291° |
| 2026-04-26 17:10 | 28.06332 | -86.94289 | 39966 ft | 398 kts | 291° |
| 2026-04-26 17:10 | 28.08090 | -87.00213 | 39966 ft | 398 kts | 291° |
| 2026-04-26 17:11 | 28.09847 | -87.06142 | 39968 ft | 398 kts | 291° |
| 2026-04-26 17:11 | 28.11611 | -87.12109 | 39967 ft | 398 kts | 291° |
| 2026-04-26 17:12 | 28.14243 | -87.21034 | 39968 ft | 398 kts | 291° |
| 2026-04-26 17:13 | 28.16867 | -87.29952 | 39967 ft | 398 kts | 291° |
| 2026-04-26 17:14 | 28.19496 | -87.38913 | 39966 ft | 398 kts | 291° |
| 2026-04-26 17:14 | 28.22119 | -87.47877 | 39966 ft | 398 kts | 291° |
| 2026-04-26 17:15 | 28.24717 | -87.56782 | 39964 ft | 398 kts | 291° |
| 2026-04-26 17:16 | 28.26468 | -87.62794 | 39967 ft | 398 kts | 291° |
| 2026-04-26 17:16 | 28.28202 | -87.68759 | 39967 ft | 398 kts | 291° |
| 2026-04-26 17:17 | 28.29929 | -87.74713 | 39966 ft | 398 kts | 291° |
| 2026-04-26 17:17 | 28.31653 | -87.80669 | 39969 ft | 398 kts | 291° |
| 2026-04-26 17:18 | 28.33383 | -87.86655 | 39968 ft | 398 kts | 291° |
| 2026-04-26 17:18 | 28.35102 | -87.92611 | 39967 ft | 398 kts | 291° |
| 2026-04-26 17:19 | 28.37683 | -88.01575 | 39972 ft | 397 kts | 291° |
| 2026-04-26 17:19 | 28.39734 | -88.07407 | 39974 ft | 396 kts | 296° |
| 2026-04-26 17:20 | 28.41621 | -88.12180 | 39976 ft | 397 kts | 296° |
| 2026-04-26 17:20 | 28.44265 | -88.18893 | 39981 ft | 397 kts | 296° |
| 2026-04-26 17:21 | 28.46519 | -88.24631 | 39974 ft | 397 kts | 296° |
| 2026-04-26 17:21 | 28.48766 | -88.30363 | 39973 ft | 396 kts | 296° |
| 2026-04-26 17:22 | 28.50998 | -88.36070 | 39974 ft | 395 kts | 296° |
| 2026-04-26 17:22 | 28.53236 | -88.41803 | 39973 ft | 395 kts | 296° |
| 2026-04-26 17:23 | 28.55461 | -88.47511 | 39974 ft | 394 kts | 296° |
| 2026-04-26 17:23 | 28.57682 | -88.53219 | 39972 ft | 394 kts | 296° |
| 2026-04-26 17:24 | 28.59896 | -88.58919 | 39968 ft | 394 kts | 296° |
| 2026-04-26 17:24 | 28.62120 | -88.64653 | 39967 ft | 394 kts | 296° |
| 2026-04-26 17:25 | 28.64339 | -88.70384 | 39966 ft | 394 kts | 296° |
| 2026-04-26 17:25 | 28.66539 | -88.76075 | 39967 ft | 394 kts | 295° |
| 2026-04-26 17:26 | 28.68744 | -88.81787 | 39966 ft | 393 kts | 295° |
| 2026-04-26 17:26 | 28.70938 | -88.87482 | 39968 ft | 393 kts | 295° |
| 2026-04-26 17:27 | 28.73134 | -88.93187 | 39968 ft | 393 kts | 296° |
| 2026-04-26 17:27 | 28.75333 | -88.98909 | 39968 ft | 393 kts | 295° |
| 2026-04-26 17:28 | 28.77522 | -89.04617 | 39967 ft | 393 kts | 295° |
| 2026-04-26 17:28 | 28.79713 | -89.10335 | 39966 ft | 393 kts | 296° |
| 2026-04-26 17:29 | 28.81522 | -89.15064 | 39970 ft | 393 kts | 295° |
| 2026-04-26 17:29 | 28.84076 | -89.21750 | 39968 ft | 393 kts | 295° |
| 2026-04-26 17:30 | 28.86261 | -89.27480 | 39967 ft | 393 kts | 295° |
| 2026-04-26 17:30 | 28.88456 | -89.33247 | 39968 ft | 393 kts | 295° |
| 2026-04-26 17:31 | 28.90619 | -89.38935 | 39967 ft | 393 kts | 295° |
| 2026-04-26 17:31 | 28.92802 | -89.44688 | 39966 ft | 392 kts | 295° |
| 2026-04-26 17:32 | 28.94967 | -89.50398 | 39961 ft | 391 kts | 295° |
| 2026-04-26 17:32 | 28.97126 | -89.56105 | 39955 ft | 391 kts | 295° |
| 2026-04-26 17:33 | 28.99285 | -89.61817 | 39952 ft | 391 kts | 295° |
| 2026-04-26 17:34 | 29.02525 | -89.70409 | 39949 ft | 393 kts | 295° |
| 2026-04-26 17:34 | 29.04684 | -89.76146 | 39954 ft | 393 kts | 295° |
| 2026-04-26 17:35 | 29.06858 | -89.81927 | 39950 ft | 393 kts | 295° |
| 2026-04-26 17:35 | 29.09013 | -89.87672 | 39945 ft | 394 kts | 295° |
| 2026-04-26 17:36 | 29.11069 | -89.93159 | 39950 ft | 394 kts | 295° |
| 2026-04-26 17:36 | 29.13221 | -89.98917 | 39950 ft | 393 kts | 295° |
| 2026-04-26 17:37 | 29.15373 | -90.04677 | 39945 ft | 392 kts | 295° |
| 2026-04-26 17:37 | 29.17427 | -90.10423 | 39939 ft | 393 kts | 290° |
| 2026-04-26 17:38 | 29.19097 | -90.19666 | 39944 ft | 396 kts | 285° |
| 2026-04-26 17:38 | 29.20140 | -90.25852 | 39946 ft | 396 kts | 285° |
| 2026-04-26 17:39 | 29.21180 | -90.32028 | 39947 ft | 396 kts | 284° |
| 2026-04-26 17:39 | 29.22219 | -90.38219 | 39942 ft | 396 kts | 284° |
| 2026-04-26 17:40 | 29.23085 | -90.43390 | 39934 ft | 396 kts | 284° |
| 2026-04-26 17:40 | 29.24286 | -90.50580 | 39947 ft | 395 kts | 284° |
| 2026-04-26 17:41 | 29.25316 | -90.56763 | 39946 ft | 395 kts | 284° |
| 2026-04-26 17:41 | 29.26339 | -90.62919 | 39940 ft | 395 kts | 284° |
| 2026-04-26 17:42 | 29.27368 | -90.69126 | 39945 ft | 396 kts | 284° |
| 2026-04-26 17:42 | 29.28393 | -90.75333 | 39939 ft | 395 kts | 284° |
| 2026-04-26 17:43 | 29.29410 | -90.81509 | 39946 ft | 395 kts | 284° |
| 2026-04-26 17:43 | 29.30421 | -90.87666 | 39935 ft | 394 kts | 284° |
| 2026-04-26 17:44 | 29.31431 | -90.93831 | 39942 ft | 393 kts | 284° |
| 2026-04-26 17:44 | 29.32437 | -90.99991 | 39930 ft | 394 kts | 284° |
| 2026-04-26 17:45 | 29.33438 | -91.06142 | 39936 ft | 393 kts | 284° |
| 2026-04-26 17:45 | 29.34442 | -91.12332 | 39937 ft | 393 kts | 284° |
| 2026-04-26 17:46 | 29.35439 | -91.18492 | 39931 ft | 393 kts | 284° |
| 2026-04-26 17:46 | 29.36439 | -91.24693 | 39928 ft | 393 kts | 284° |
| 2026-04-26 17:47 | 29.37266 | -91.29835 | 39926 ft | 394 kts | 284° |
| 2026-04-26 17:47 | 29.38420 | -91.37028 | 39914 ft | 393 kts | 284° |
| 2026-04-26 17:48 | 29.39409 | -91.43218 | 39921 ft | 393 kts | 283° |
| 2026-04-26 17:48 | 29.40388 | -91.49364 | 39918 ft | 393 kts | 284° |
| 2026-04-26 17:49 | 29.41370 | -91.55540 | 39921 ft | 393 kts | 283° |
| 2026-04-26 17:49 | 29.42351 | -91.61734 | 39916 ft | 392 kts | 284° |
| 2026-04-26 17:50 | 29.43323 | -91.67895 | 39922 ft | 392 kts | 283° |
| 2026-04-26 17:50 | 29.44296 | -91.74073 | 39923 ft | 392 kts | 283° |
| 2026-04-26 17:51 | 29.45266 | -91.80257 | 39918 ft | 392 kts | 283° |
| 2026-04-26 17:51 | 29.46228 | -91.86410 | 39919 ft | 391 kts | 283° |
| 2026-04-26 17:52 | 29.47184 | -91.92542 | 39917 ft | 391 kts | 283° |
| 2026-04-26 17:52 | 29.48145 | -91.98722 | 39923 ft | 391 kts | 283° |
| 2026-04-26 17:53 | 29.49096 | -92.04860 | 39933 ft | 391 kts | 283° |
| 2026-04-26 17:54 | 29.50528 | -92.14143 | 39934 ft | 391 kts | 283° |
| 2026-04-26 17:54 | 29.51472 | -92.20282 | 39930 ft | 391 kts | 283° |
| 2026-04-26 17:55 | 29.52410 | -92.26405 | 39933 ft | 390 kts | 283° |
| 2026-04-26 17:55 | 29.53350 | -92.32563 | 39929 ft | 391 kts | 283° |
| 2026-04-26 17:56 | 29.54288 | -92.38722 | 39928 ft | 391 kts | 283° |
| 2026-04-26 17:57 | 29.56150 | -92.51017 | 39927 ft | 391 kts | 283° |
| 2026-04-26 17:57 | 29.57075 | -92.57155 | 39925 ft | 391 kts | 283° |
| 2026-04-26 17:58 | 29.58927 | -92.69497 | 39920 ft | 391 kts | 282° |
| 2026-04-26 17:59 | 29.60301 | -92.78717 | 39917 ft | 390 kts | 282° |
| 2026-04-26 17:59 | 29.61214 | -92.84863 | 39917 ft | 389 kts | 282° |
| 2026-04-26 18:00 | 29.62122 | -92.90997 | 39914 ft | 389 kts | 282° |
| 2026-04-26 18:00 | 29.62477 | -92.97266 | 39916 ft | 392 kts | 275° |
| 2026-04-26 18:01 | 29.62604 | -93.03515 | 39912 ft | 392 kts | 275° |
| 2026-04-26 18:01 | 29.62732 | -93.09758 | 39913 ft | 392 kts | 275° |
| 2026-04-26 18:02 | 29.62839 | -93.14999 | 39912 ft | 392 kts | 275° |
| 2026-04-26 18:02 | 29.62985 | -93.22287 | 39915 ft | 392 kts | 275° |
| 2026-04-26 18:03 | 29.63109 | -93.28545 | 39916 ft | 392 kts | 275° |
| 2026-04-26 18:03 | 29.63231 | -93.34833 | 39919 ft | 392 kts | 275° |
| 2026-04-26 18:04 | 29.63350 | -93.41085 | 39924 ft | 391 kts | 275° |
| 2026-04-26 18:05 | 29.63524 | -93.50457 | 39916 ft | 391 kts | 275° |
| 2026-04-26 18:05 | 29.63636 | -93.56694 | 39916 ft | 391 kts | 275° |
| 2026-04-26 18:06 | 29.63745 | -93.62950 | 39917 ft | 392 kts | 275° |
| 2026-04-26 18:06 | 29.63853 | -93.69220 | 39914 ft | 392 kts | 275° |
| 2026-04-26 18:07 | 29.63957 | -93.75512 | 39911 ft | 392 kts | 275° |
| 2026-04-26 18:07 | 29.64059 | -93.81798 | 39918 ft | 392 kts | 275° |
| 2026-04-26 18:08 | 29.64156 | -93.88049 | 39912 ft | 392 kts | 275° |
| 2026-04-26 18:08 | 29.64252 | -93.94330 | 39913 ft | 392 kts | 275° |
| 2026-04-26 18:09 | 29.64345 | -94.00600 | 39911 ft | 393 kts | 274° |
| 2026-04-26 18:09 | 29.64435 | -94.06927 | 39914 ft | 393 kts | 274° |
| 2026-04-26 18:10 | 29.64522 | -94.13197 | 39910 ft | 392 kts | 274° |
| 2026-04-26 18:10 | 29.64605 | -94.19451 | 39916 ft | 392 kts | 275° |
| 2026-04-26 18:11 | 29.64686 | -94.25734 | 39890 ft | 392 kts | 274° |
| 2026-04-26 18:11 | 29.64763 | -94.31983 | 39881 ft | 392 kts | 275° |
| 2026-04-26 18:12 | 29.64838 | -94.38271 | 39880 ft | 392 kts | 274° |
| 2026-04-26 18:12 | 29.64908 | -94.44510 | 39882 ft | 392 kts | 274° |
| 2026-04-26 18:13 | 29.64977 | -94.50805 | 39882 ft | 392 kts | 275° |
| 2026-04-26 18:13 | 29.65042 | -94.57082 | 39881 ft | 392 kts | 274° |
| 2026-04-26 18:14 | 29.65105 | -94.63363 | 39874 ft | 392 kts | 274° |
| 2026-04-26 18:14 | 29.65164 | -94.69621 | 39880 ft | 392 kts | 274° |
| 2026-04-26 18:15 | 29.65221 | -94.75890 | 39881 ft | 392 kts | 274° |
| 2026-04-26 18:15 | 29.65274 | -94.82158 | 39870 ft | 392 kts | 274° |
| 2026-04-26 18:16 | 29.65325 | -94.88444 | 39879 ft | 391 kts | 274° |
| 2026-04-26 18:16 | 29.65395 | -94.97848 | 39894 ft | 391 kts | 274° |
| 2026-04-26 18:17 | 29.65438 | -95.04084 | 39893 ft | 391 kts | 274° |
| 2026-04-26 18:17 | 29.65478 | -95.10235 | 39895 ft | 391 kts | 274° |
| 2026-04-26 18:18 | 29.65516 | -95.16508 | 39896 ft | 392 kts | 274° |
| 2026-04-26 18:18 | 29.65550 | -95.22752 | 39890 ft | 391 kts | 274° |
| 2026-04-26 18:19 | 29.65722 | -95.28970 | 39894 ft | 387 kts | 280° |
| 2026-04-26 18:19 | 29.66587 | -95.35136 | 39892 ft | 388 kts | 281° |
| 2026-04-26 18:20 | 29.67442 | -95.41225 | 39892 ft | 388 kts | 281° |
| 2026-04-26 18:20 | 29.68162 | -95.46371 | 39889 ft | 389 kts | 281° |
| 2026-04-26 18:21 | 29.69156 | -95.53523 | 39890 ft | 389 kts | 281° |
| 2026-04-26 18:21 | 29.70005 | -95.59663 | 39886 ft | 389 kts | 281° |
| 2026-04-26 18:22 | 29.70851 | -95.65811 | 39889 ft | 389 kts | 281° |
| 2026-04-26 18:22 | 29.71696 | -95.71978 | 39887 ft | 389 kts | 280° |
| 2026-04-26 18:23 | 29.72516 | -95.77991 | 39896 ft | 389 kts | 280° |
| 2026-04-26 18:23 | 29.73375 | -95.84312 | 39884 ft | 389 kts | 281° |
| 2026-04-26 18:24 | 29.74207 | -95.90459 | 39879 ft | 388 kts | 281° |
| 2026-04-26 18:24 | 29.75042 | -95.96649 | 39874 ft | 388 kts | 280° |
| 2026-04-26 18:25 | 29.75866 | -96.02786 | 39871 ft | 388 kts | 280° |
| 2026-04-26 18:25 | 29.76689 | -96.08935 | 39864 ft | 389 kts | 280° |
| 2026-04-26 18:26 | 29.77519 | -96.15160 | 39854 ft | 390 kts | 280° |
| 2026-04-26 18:26 | 29.78177 | -96.21320 | 39855 ft | 390 kts | 277° |
| 2026-04-26 18:27 | 29.78643 | -96.27590 | 39857 ft | 390 kts | 277° |
| 2026-04-26 18:27 | 29.79106 | -96.33811 | 39627 ft | 391 kts | 277° |
| 2026-04-26 18:28 | 29.79334 | -96.36885 | 39170 ft | 383 kts | 277° |
| 2026-04-26 18:28 | 29.79556 | -96.39902 | 38708 ft | 375 kts | 277° |
| 2026-04-26 18:28 | 29.79751 | -96.42539 | 38286 ft | 371 kts | 277° |
| 2026-04-26 18:28 | 29.79971 | -96.45524 | 37795 ft | 370 kts | 277° |
| 2026-04-26 18:29 | 29.80185 | -96.48441 | 37317 ft | 369 kts | 277° |
| 2026-04-26 18:29 | 29.80404 | -96.51417 | 36819 ft | 369 kts | 276° |
| 2026-04-26 18:29 | 29.80619 | -96.54365 | 36335 ft | 369 kts | 277° |
| 2026-04-26 18:29 | 29.80835 | -96.57327 | 35840 ft | 370 kts | 276° |
| 2026-04-26 18:30 | 29.81051 | -96.60259 | 35349 ft | 372 kts | 277° |
| 2026-04-26 18:30 | 29.81271 | -96.63237 | 34847 ft | 373 kts | 277° |
| 2026-04-26 18:30 | 29.81490 | -96.66225 | 34347 ft | 375 kts | 276° |
| 2026-04-26 18:30 | 29.81710 | -96.69238 | 33848 ft | 376 kts | 276° |
| 2026-04-26 18:31 | 29.81933 | -96.72298 | 33343 ft | 378 kts | 276° |
| 2026-04-26 18:31 | 29.82154 | -96.75333 | 32841 ft | 380 kts | 276° |
| 2026-04-26 18:31 | 29.82377 | -96.78414 | 32330 ft | 382 kts | 275° |
| 2026-04-26 18:31 | 29.82601 | -96.81507 | 31811 ft | 385 kts | 276° |
| 2026-04-26 18:32 | 29.82822 | -96.84570 | 31303 ft | 388 kts | 275° |
| 2026-04-26 18:32 | 29.83044 | -96.87678 | 30784 ft | 392 kts | 275° |
| 2026-04-26 18:32 | 29.83271 | -96.90843 | 30257 ft | 396 kts | 275° |
| 2026-04-26 18:32 | 29.83498 | -96.94027 | 29726 ft | 399 kts | 275° |
| 2026-04-26 18:33 | 29.83726 | -96.97243 | 29189 ft | 403 kts | 275° |
| 2026-04-26 18:33 | 29.83954 | -97.00462 | 28657 ft | 405 kts | 275° |
| 2026-04-26 18:33 | 29.84181 | -97.03671 | 28120 ft | 404 kts | 275° |
| 2026-04-26 18:33 | 29.84407 | -97.06894 | 27578 ft | 401 kts | 275° |
| 2026-04-26 18:34 | 29.84630 | -97.10073 | 27044 ft | 398 kts | 275° |
| 2026-04-26 18:34 | 29.84856 | -97.13281 | 26500 ft | 395 kts | 275° |
| 2026-04-26 18:34 | 29.85073 | -97.16373 | 25984 ft | 392 kts | 275° |
| 2026-04-26 18:34 | 29.85292 | -97.19513 | 25454 ft | 388 kts | 275° |
| 2026-04-26 18:35 | 29.85507 | -97.22591 | 24945 ft | 385 kts | 275° |
| 2026-04-26 18:35 | 29.85719 | -97.25632 | 24440 ft | 383 kts | 275° |
| 2026-04-26 18:35 | 29.85930 | -97.28687 | 23930 ft | 380 kts | 274° |
| 2026-04-26 18:35 | 29.86138 | -97.31699 | 23436 ft | 377 kts | 275° |
| 2026-04-26 18:36 | 29.86344 | -97.34698 | 22941 ft | 374 kts | 275° |
| 2026-04-26 18:36 | 29.86548 | -97.37678 | 22447 ft | 372 kts | 275° |
| 2026-04-26 18:36 | 29.86754 | -97.40678 | 21954 ft | 371 kts | 275° |
| 2026-04-26 18:36 | 29.86953 | -97.43618 | 21472 ft | 370 kts | 275° |
| 2026-04-26 18:37 | 29.87152 | -97.46559 | 20992 ft | 368 kts | 275° |
| 2026-04-26 18:37 | 29.87350 | -97.49500 | 20501 ft | 367 kts | 274° |
| 2026-04-26 18:37 | 29.87546 | -97.52428 | 20010 ft | 366 kts | 275° |
| 2026-04-26 18:37 | 29.87741 | -97.55337 | 19526 ft | 365 kts | 275° |
| 2026-04-26 18:38 | 29.87933 | -97.58221 | 19047 ft | 365 kts | 275° |
| 2026-04-26 18:38 | 29.88128 | -97.61162 | 18560 ft | 364 kts | 274° |
| 2026-04-26 18:38 | 29.88321 | -97.64066 | 18080 ft | 363 kts | 275° |
| 2026-04-26 18:38 | 29.88510 | -97.66943 | 17628 ft | 362 kts | 274° |
| 2026-04-26 18:39 | 29.88702 | -97.69855 | 17241 ft | 364 kts | 274° |
| 2026-04-26 18:39 | 29.88890 | -97.72728 | 16734 ft | 361 kts | 274° |
| 2026-04-26 18:39 | 29.89079 | -97.75623 | 16258 ft | 360 kts | 274° |
| 2026-04-26 18:39 | 29.89266 | -97.78497 | 15780 ft | 356 kts | 274° |
| 2026-04-26 18:40 | 29.89448 | -97.81301 | 15317 ft | 352 kts | 274° |
| 2026-04-26 18:40 | 29.89626 | -97.84089 | 14854 ft | 347 kts | 274° |
| 2026-04-26 18:40 | 29.89475 | -97.86848 | 14399 ft | 342 kts | 257° |
| 2026-04-26 18:40 | 29.88712 | -97.89422 | 13932 ft | 338 kts | 250° |
| 2026-04-26 18:41 | 29.87882 | -97.91929 | 13485 ft | 333 kts | 251° |
| 2026-04-26 18:41 | 29.87060 | -97.94434 | 13063 ft | 330 kts | 251° |
| 2026-04-26 18:41 | 29.86243 | -97.96893 | 12629 ft | 328 kts | 250° |
| 2026-04-26 18:41 | 29.85424 | -97.99339 | 12250 ft | 326 kts | 250° |
| 2026-04-26 18:42 | 29.84610 | -98.01769 | 11929 ft | 321 kts | 250° |
| 2026-04-26 18:42 | 29.83814 | -98.04147 | 11584 ft | 317 kts | 250° |
| 2026-04-26 18:42 | 29.83029 | -98.06503 | 11225 ft | 309 kts | 250° |
| 2026-04-26 18:42 | 29.82272 | -98.08776 | 10884 ft | 302 kts | 249° |
| 2026-04-26 18:43 | 29.81523 | -98.11021 | 10540 ft | 296 kts | 249° |
| 2026-04-26 18:43 | 29.80801 | -98.13187 | 10220 ft | 289 kts | 249° |
| 2026-04-26 18:43 | 29.80078 | -98.15353 | 9894 ft | 285 kts | 249° |
| 2026-04-26 18:43 | 29.79374 | -98.17467 | 9570 ft | 285 kts | 249° |
| 2026-04-26 18:44 | 29.78658 | -98.19618 | 9246 ft | 284 kts | 248° |
| 2026-04-26 18:44 | 29.77957 | -98.21722 | 8926 ft | 282 kts | 248° |
| 2026-04-26 18:44 | 29.77255 | -98.23834 | 8613 ft | 278 kts | 248° |
| 2026-04-26 18:44 | 29.76575 | -98.25873 | 8307 ft | 272 kts | 248° |
| 2026-04-26 18:45 | 29.75899 | -98.27901 | 7996 ft | 267 kts | 248° |
| 2026-04-26 18:45 | 29.75246 | -98.29858 | 7712 ft | 261 kts | 248° |
| 2026-04-26 18:45 | 29.74598 | -98.31795 | 7447 ft | 254 kts | 247° |
| 2026-04-26 18:45 | 29.73978 | -98.33652 | 7234 ft | 247 kts | 247° |
| 2026-04-26 18:46 | 29.73359 | -98.35500 | 6972 ft | 245 kts | 247° |
| 2026-04-26 18:46 | 29.72768 | -98.37302 | 6753 ft | 239 kts | 247° |
| 2026-04-26 18:46 | 29.72188 | -98.39099 | 6497 ft | 235 kts | 247° |
| 2026-04-26 18:46 | 29.71623 | -98.40850 | 6274 ft | 229 kts | 247° |
| 2026-04-26 18:47 | 29.71076 | -98.42541 | 6047 ft | 223 kts | 247° |
| 2026-04-26 18:47 | 29.70562 | -98.44197 | 5837 ft | 217 kts | 248° |
| 2026-04-26 18:47 | 29.70073 | -98.45840 | 5557 ft | 216 kts | 248° |
| 2026-04-26 18:47 | 29.69579 | -98.47492 | 5206 ft | 218 kts | 248° |
| 2026-04-26 18:48 | 29.69084 | -98.49147 | 4886 ft | 218 kts | 248° |
| 2026-04-26 18:48 | 29.68596 | -98.50782 | 4618 ft | 215 kts | 248° |
| 2026-04-26 18:48 | 29.68108 | -98.52405 | 4334 ft | 205 kts | 247° |
| 2026-04-26 18:48 | 29.67488 | -98.53825 | 4074 ft | 192 kts | 234° |
| 2026-04-26 18:49 | 29.66645 | -98.54958 | 3829 ft | 181 kts | 220° |
| 2026-04-26 18:49 | 29.65669 | -98.55783 | 3600 ft | 170 kts | 208° |
| 2026-04-26 18:49 | 29.64616 | -98.56317 | 3380 ft | 161 kts | 196° |
| 2026-04-26 18:49 | 29.63499 | -98.56587 | 3155 ft | 162 kts | 184° |
| 2026-04-26 18:50 | 29.62406 | -98.56587 | 2934 ft | 152 kts | 172° |
| 2026-04-26 18:50 | 29.61405 | -98.56351 | 2744 ft | 142 kts | 162° |
| 2026-04-26 18:50 | 29.60510 | -98.55936 | 2531 ft | 128 kts | 153° |
| 2026-04-26 18:50 | 29.59803 | -98.55422 | 2382 ft | 120 kts | 144° |
| 2026-04-26 18:51 | 29.59152 | -98.54805 | 2213 ft | 120 kts | 137° |
| 2026-04-26 18:51 | 29.58578 | -98.54104 | 2070 ft | 119 kts | 133° |
| 2026-04-26 18:51 | 29.58018 | -98.53390 | 1905 ft | 119 kts | 133° |
| 2026-04-26 18:51 | 29.57460 | -98.52674 | 1749 ft | 120 kts | 133° |
| 2026-04-26 18:52 | 29.56907 | -98.51959 | 1592 ft | 119 kts | 132° |
| 2026-04-26 18:52 | 29.56362 | -98.51250 | 1441 ft | 119 kts | 132° |
| 2026-04-26 18:52 | 29.55806 | -98.50523 | 1278 ft | 119 kts | 133° |
| 2026-04-26 18:52 | 29.55253 | -98.49813 | 1113 ft | 119 kts | 133° |
| 2026-04-26 18:53 | 29.54707 | -98.49106 | 977 ft | 119 kts | 133° |
| 2026-04-26 18:53 | 29.54150 | -98.48391 | 816 ft | 116 kts | 133° |
| 2026-04-26 18:53 | 29.53684 | -98.47794 | 798 ft | 76 kts | 131° |
| 2026-04-26 18:53 | 29.53440 | -98.47479 | 793 ft | 42 kts | 132° |
| 2026-04-26 18:54 | 29.53303 | -98.47315 | 792 ft | 17 kts | 156° |
| 2026-04-26 18:54 | 29.53214 | -98.47285 | 792 ft | 11 kts | 165° |
| 2026-04-26 18:54 | 29.53166 | -98.47269 | 791 ft | 0 kts | 164° |
| 2026-04-26 18:55 | 29.53153 | -98.47270 | 791 ft | 6 kts | 208° |
| 2026-04-26 18:55 | 29.53177 | -98.47332 | 792 ft | 11 kts | 311° |
| 2026-04-26 18:55 | 29.53242 | -98.47414 | 793 ft | 16 kts | 311° |
| 2026-04-26 18:56 | 29.53325 | -98.47522 | 793 ft | 18 kts | 312° |
| 2026-04-26 18:56 | 29.53415 | -98.47640 | 795 ft | 21 kts | 312° |
| 2026-04-26 18:56 | 29.53483 | -98.47726 | 797 ft | 11 kts | 311° |
| 2026-04-26 18:56 | 29.53524 | -98.47808 | 798 ft | 9 kts | 263° |
| 2026-04-26 18:57 | 29.53488 | -98.47866 | 800 ft | 8 kts | 226° |
| 2026-04-26 18:57 | 29.53457 | -98.47903 | 800 ft | 10 kts | 226° |
| 2026-04-26 18:57 | 29.53411 | -98.47943 | 802 ft | 6 kts | 99° |
| 2026-04-26 18:57 | 29.53413 | -98.47934 | 801 ft | 0 kts | 61° |
| 2026-04-26 18:58 | 29.53413 | -98.47935 | 801 ft | 0 kts | 61° |